sensor_id;sensor_type;location;lat;lon;timestamp;pressure;altitude;pressure_sealevel;temperature;humidity
29825;BME280;16713;52.916;12.834;2022-09-01T00:00:39;101847.22;;;16.06;66.95
29825;BME280;16713;52.916;12.834;2022-09-01T00:03:17;101842.63;;;15.95;67.45
29825;BME280;16713;52.916;12.834;2022-09-01T00:05:44;101853.56;;;16.07;67.87
29825;BME280;16713;52.916;12.834;2022-09-01T00:08:12;101847.81;;;15.96;67.73
29825;BME280;16713;52.916;12.834;2022-09-01T00:10:43;101844.44;;;15.87;68.56
29825;BME280;16713;52.916;12.834;2022-09-01T00:13:10;101847.56;;;15.86;68.54
29825;BME280;16713;52.916;12.834;2022-09-01T00:15:36;101840.19;;;15.74;68.10
29825;BME280;16713;52.916;12.834;2022-09-01T00:18:03;101844.84;;;15.70;68.16
29825;BME280;16713;52.916;12.834;2022-09-01T00:20:29;101838.66;;;15.58;68.81
29825;BME280;16713;52.916;12.834;2022-09-01T00:22:56;101839.28;;;15.51;69.14
29825;BME280;16713;52.916;12.834;2022-09-01T00:25:22;101836.59;;;15.39;69.26
29825;BME280;16713;52.916;12.834;2022-09-01T00:27:49;101842.22;;;15.43;69.53
29825;BME280;16713;52.916;12.834;2022-09-01T00:30:20;101838.78;;;15.30;70.04
29825;BME280;16713;52.916;12.834;2022-09-01T00:32:46;101838.78;;;15.30;70.69
29825;BME280;16713;52.916;12.834;2022-09-01T00:35:14;101844.38;;;15.18;70.53
29825;BME280;16713;52.916;12.834;2022-09-01T00:37:41;101842.03;;;15.36;71.06
29825;BME280;16713;52.916;12.834;2022-09-01T00:40:08;101845.72;;;15.40;70.37
29825;BME280;16713;52.916;12.834;2022-09-01T00:42:36;101839.81;;;15.41;70.35
29825;BME280;16713;52.916;12.834;2022-09-01T00:45:03;101835.19;;;15.30;69.78
29825;BME280;16713;52.916;12.834;2022-09-01T00:47:29;101834.75;;;15.28;71.00
29825;BME280;16713;52.916;12.834;2022-09-01T00:49:56;101828.53;;;15.15;70.88
29825;BME280;16713;52.916;12.834;2022-09-01T00:54:51;101836.66;;;15.08;71.23
29825;BME280;16713;52.916;12.834;2022-09-01T00:57:19;101837.03;;;15.07;71.30
29825;BME280;16713;52.916;12.834;2022-09-01T00:59:47;101831.28;;;15.15;70.98
29825;BME280;16713;52.916;12.834;2022-09-01T01:02:15;101829.16;;;15.24;70.70
29825;BME280;16713;52.916;12.834;2022-09-01T01:04:41;101826.47;;;15.12;71.43
29825;BME280;16713;52.916;12.834;2022-09-01T01:07:09;101825.75;;;15.15;70.62
29825;BME280;16713;52.916;12.834;2022-09-01T01:09:38;101827.78;;;15.49;70.20
29825;BME280;16713;52.916;12.834;2022-09-01T01:12:05;101826.53;;;15.31;70.36
29825;BME280;16713;52.916;12.834;2022-09-01T01:14:33;101824.22;;;15.33;70.71
29825;BME280;16713;52.916;12.834;2022-09-01T01:16:59;101821.91;;;15.35;70.41
29825;BME280;16713;52.916;12.834;2022-09-01T01:25:23;101819.25;;;15.73;69.09
29825;BME280;16713;52.916;12.834;2022-09-01T01:27:50;101820.63;;;15.83;68.63
29825;BME280;16713;52.916;12.834;2022-09-01T01:30:18;101829.81;;;15.87;68.65
29825;BME280;16713;52.916;12.834;2022-09-01T01:32:47;101819.13;;;16.04;67.66
29825;BME280;16713;52.916;12.834;2022-09-01T01:35:15;101822.00;;;15.92;68.34
29825;BME280;16713;52.916;12.834;2022-09-01T01:37:43;101822.81;;;15.93;67.48
29825;BME280;16713;52.916;12.834;2022-09-01T01:40:15;101819.03;;;15.82;68.20
29825;BME280;16713;52.916;12.834;2022-09-01T01:42:45;101824.34;;;15.90;68.20
29825;BME280;16713;52.916;12.834;2022-09-01T01:45:13;101825.16;;;15.91;67.78
29825;BME280;16713;52.916;12.834;2022-09-01T01:47:46;101840.22;;;15.93;68.17
29825;BME280;16713;52.916;12.834;2022-09-01T01:50:13;101825.78;;;15.84;67.12
29825;BME280;16713;52.916;12.834;2022-09-01T01:52:39;101832.44;;;15.99;67.49
29825;BME280;16713;52.916;12.834;2022-09-01T01:55:10;101822.47;;;15.94;66.79
29825;BME280;16713;52.916;12.834;2022-09-01T01:57:38;101821.16;;;15.88;67.71
29825;BME280;16713;52.916;12.834;2022-09-01T02:00:05;101820.56;;;15.98;66.34
29825;BME280;16713;52.916;12.834;2022-09-01T02:02:32;101815.19;;;15.86;67.42
29825;BME280;16713;52.916;12.834;2022-09-01T02:04:59;101822.44;;;15.75;67.79
29825;BME280;16713;52.916;12.834;2022-09-01T02:07:25;101814.56;;;15.43;69.04
29825;BME280;16713;52.916;12.834;2022-09-01T02:09:56;101820.28;;;15.34;68.30
29825;BME280;16713;52.916;12.834;2022-09-01T02:12:23;101821.81;;;15.32;68.39
29825;BME280;16713;52.916;12.834;2022-09-01T02:14:50;101823.25;;;15.10;69.10
29825;BME280;16713;52.916;12.834;2022-09-01T02:17:20;101816.59;;;14.96;69.30
29825;BME280;16713;52.916;12.834;2022-09-01T02:19:46;101821.84;;;14.85;69.65
29825;BME280;16713;52.916;12.834;2022-09-01T02:22:13;101814.56;;;14.61;71.75
29825;BME280;16713;52.916;12.834;2022-09-01T02:24:40;101815.41;;;14.50;71.44
29825;BME280;16713;52.916;12.834;2022-09-01T02:27:11;101812.06;;;14.44;72.28
29825;BME280;16713;52.916;12.834;2022-09-01T02:29:38;101819.28;;;14.49;70.90
29825;BME280;16713;52.916;12.834;2022-09-01T02:32:08;101816.22;;;14.50;71.57
29825;BME280;16713;52.916;12.834;2022-09-01T02:34:36;101807.84;;;14.19;72.45
29825;BME280;16713;52.916;12.834;2022-09-01T02:37:05;101807.25;;;13.98;72.06
29825;BME280;16713;52.916;12.834;2022-09-01T02:39:31;101804.13;;;14.00;71.90
29825;BME280;16713;52.916;12.834;2022-09-01T02:41:58;101804.13;;;13.72;72.49
29825;BME280;16713;52.916;12.834;2022-09-01T02:44:26;101803.91;;;14.05;71.25
29825;BME280;16713;52.916;12.834;2022-09-01T02:46:54;101792.03;;;13.77;72.61
29825;BME280;16713;52.916;12.834;2022-09-01T02:49:21;101796.66;;;13.73;72.36
29825;BME280;16713;52.916;12.834;2022-09-01T02:51:51;101798.22;;;13.86;71.79
29825;BME280;16713;52.916;12.834;2022-09-01T02:54:20;101794.94;;;13.68;72.15
29825;BME280;16713;52.916;12.834;2022-09-01T02:56:50;101795.50;;;13.62;73.30
29825;BME280;16713;52.916;12.834;2022-09-01T02:59:20;101793.69;;;13.54;72.65
29825;BME280;16713;52.916;12.834;2022-09-01T03:01:48;101790.25;;;13.45;73.69
29825;BME280;16713;52.916;12.834;2022-09-01T03:04:15;101789.56;;;13.48;72.15
29825;BME280;16713;52.916;12.834;2022-09-01T03:06:42;101786.16;;;13.26;72.49
29825;BME280;16713;52.916;12.834;2022-09-01T03:09:10;101793.38;;;13.31;73.72
29825;BME280;16713;52.916;12.834;2022-09-01T03:11:39;101799.44;;;13.49;73.04
29825;BME280;16713;52.916;12.834;2022-09-01T03:14:06;101799.25;;;13.29;72.00
29825;BME280;16713;52.916;12.834;2022-09-01T03:16:33;101796.56;;;13.45;71.71
29825;BME280;16713;52.916;12.834;2022-09-01T03:18:59;101788.53;;;13.40;72.59
29825;BME280;16713;52.916;12.834;2022-09-01T03:21:28;101795.16;;;13.63;70.26
29825;BME280;16713;52.916;12.834;2022-09-01T03:23:57;101797.16;;;13.38;71.64
29825;BME280;16713;52.916;12.834;2022-09-01T03:26:24;101799.91;;;13.38;71.99
29825;BME280;16713;52.916;12.834;2022-09-01T03:28:50;101798.41;;;13.65;70.76
29825;BME280;16713;52.916;12.834;2022-09-01T03:31:17;101800.00;;;13.54;71.15
29825;BME280;16713;52.916;12.834;2022-09-01T03:33:45;101799.75;;;13.71;69.66
29825;BME280;16713;52.916;12.834;2022-09-01T03:36:11;101805.97;;;13.68;70.70
29825;BME280;16713;52.916;12.834;2022-09-01T03:38:45;101808.50;;;13.73;70.03
29825;BME280;16713;52.916;12.834;2022-09-01T03:41:14;101799.66;;;13.68;69.92
29825;BME280;16713;52.916;12.834;2022-09-01T03:43:43;101804.13;;;13.60;70.16
29825;BME280;16713;52.916;12.834;2022-09-01T03:46:12;101799.75;;;13.59;71.10
29825;BME280;16713;52.916;12.834;2022-09-01T03:48:49;101793.84;;;13.21;70.73
29825;BME280;16713;52.916;12.834;2022-09-01T03:51:17;101796.38;;;13.26;71.88
29825;BME280;16713;52.916;12.834;2022-09-01T03:53:44;101795.69;;;13.05;73.12
29825;BME280;16713;52.916;12.834;2022-09-01T03:56:11;101796.25;;;12.98;74.09
29825;BME280;16713;52.916;12.834;2022-09-01T03:58:39;101794.88;;;13.04;73.47
29825;BME280;16713;52.916;12.834;2022-09-01T04:01:06;101795.03;;;12.96;73.60
29825;BME280;16713;52.916;12.834;2022-09-01T04:03:38;101794.22;;;12.95;73.69
29825;BME280;16713;52.916;12.834;2022-09-01T04:06:07;101797.53;;;13.01;73.79
29825;BME280;16713;52.916;12.834;2022-09-01T04:08:34;101788.81;;;12.75;74.54
29825;BME280;16713;52.916;12.834;2022-09-01T04:11:09;101781.13;;;12.68;75.57
29825;BME280;16713;52.916;12.834;2022-09-01T04:13:37;101785.38;;;12.78;74.46
29825;BME280;16713;52.916;12.834;2022-09-01T04:16:04;101783.44;;;12.78;74.38
29825;BME280;16713;52.916;12.834;2022-09-01T04:18:51;101788.72;;;13.07;73.92
29825;BME280;16713;52.916;12.834;2022-09-01T04:21:17;101789.84;;;12.94;73.78
29825;BME280;16713;52.916;12.834;2022-09-01T04:23:45;101787.44;;;12.93;74.26
29825;BME280;16713;52.916;12.834;2022-09-01T04:26:12;101786.03;;;12.87;74.37
29825;BME280;16713;52.916;12.834;2022-09-01T04:28:46;101787.09;;;12.94;74.17
29825;BME280;16713;52.916;12.834;2022-09-01T04:31:14;101776.88;;;12.83;74.35
29825;BME280;16713;52.916;12.834;2022-09-01T04:33:43;101789.84;;;13.06;73.53
29825;BME280;16713;52.916;12.834;2022-09-01T04:36:16;101785.59;;;13.09;74.58
29825;BME280;16713;52.916;12.834;2022-09-01T04:38:45;101784.78;;;12.96;74.77
29825;BME280;16713;52.916;12.834;2022-09-01T04:41:12;101787.78;;;13.03;75.22
29825;BME280;16713;52.916;12.834;2022-09-01T04:43:43;101789.84;;;13.18;73.37
29825;BME280;16713;52.916;12.834;2022-09-01T04:46:10;101780.66;;;13.14;73.23
29825;BME280;16713;52.916;12.834;2022-09-01T04:48:40;101786.94;;;13.27;73.70
29825;BME280;16713;52.916;12.834;2022-09-01T04:51:11;101784.09;;;13.11;74.55
29825;BME280;16713;52.916;12.834;2022-09-01T04:53:38;101790.03;;;13.37;74.02
29825;BME280;16713;52.916;12.834;2022-09-01T04:56:05;101793.69;;;13.42;73.23
29825;BME280;16713;52.916;12.834;2022-09-01T04:58:32;101791.63;;;13.38;73.82
29825;BME280;16713;52.916;12.834;2022-09-01T05:00:59;101795.56;;;13.25;72.88
29825;BME280;16713;52.916;12.834;2022-09-01T05:03:31;101791.88;;;13.33;73.61
29825;BME280;16713;52.916;12.834;2022-09-01T05:05:57;101795.66;;;13.41;73.06
29825;BME280;16713;52.916;12.834;2022-09-01T05:08:29;101795.31;;;13.43;73.90
29825;BME280;16713;52.916;12.834;2022-09-01T05:11:02;101796.91;;;13.44;72.99
29825;BME280;16713;52.916;12.834;2022-09-01T05:13:31;101791.63;;;13.51;74.06
29825;BME280;16713;52.916;12.834;2022-09-01T05:15:59;101793.81;;;13.57;73.65
29825;BME280;16713;52.916;12.834;2022-09-01T05:18:27;101800.34;;;13.65;72.64
29825;BME280;16713;52.916;12.834;2022-09-01T05:20:53;101791.84;;;13.70;73.69
29825;BME280;16713;52.916;12.834;2022-09-01T05:23:20;101790.69;;;13.71;73.21
29825;BME280;16713;52.916;12.834;2022-09-01T05:25:48;101800.41;;;13.80;72.96
29825;BME280;16713;52.916;12.834;2022-09-01T05:28:15;101798.94;;;13.83;72.17
29825;BME280;16713;52.916;12.834;2022-09-01T05:30:43;101800.16;;;13.85;72.46
29825;BME280;16713;52.916;12.834;2022-09-01T05:33:11;101797.53;;;13.89;72.43
29825;BME280;16713;52.916;12.834;2022-09-01T05:35:54;101803.84;;;13.89;73.21
29825;BME280;16713;52.916;12.834;2022-09-01T05:38:21;101809.91;;;13.95;72.87
29825;BME280;16713;52.916;12.834;2022-09-01T05:40:57;101805.91;;;13.92;72.55
29825;BME280;16713;52.916;12.834;2022-09-01T05:43:25;101814.34;;;13.99;73.76
29825;BME280;16713;52.916;12.834;2022-09-01T05:45:52;101810.00;;;13.98;73.39
29825;BME280;16713;52.916;12.834;2022-09-01T05:48:32;101816.22;;;13.95;73.74
29825;BME280;16713;52.916;12.834;2022-09-01T05:51:05;101815.72;;;13.78;73.72
29825;BME280;16713;52.916;12.834;2022-09-01T05:53:52;101823.63;;;13.79;73.98
29825;BME280;16713;52.916;12.834;2022-09-01T05:56:21;101818.00;;;13.88;73.87
29825;BME280;16713;52.916;12.834;2022-09-01T05:58:49;101814.88;;;13.89;74.50
29825;BME280;16713;52.916;12.834;2022-09-01T06:01:35;101814.00;;;14.01;74.53
29825;BME280;16713;52.916;12.834;2022-09-01T06:04:06;101811.59;;;13.99;73.95
29825;BME280;16713;52.916;12.834;2022-09-01T06:06:35;101811.25;;;14.01;73.79
29825;BME280;16713;52.916;12.834;2022-09-01T06:09:23;101815.56;;;14.14;73.75
29825;BME280;16713;52.916;12.834;2022-09-01T06:11:49;101804.34;;;13.67;75.66
29825;BME280;16713;52.916;12.834;2022-09-01T06:14:17;101804.91;;;13.61;78.54
29825;BME280;16713;52.916;12.834;2022-09-01T06:16:43;101815.47;;;13.83;76.95
29825;BME280;16713;52.916;12.834;2022-09-01T06:19:10;101811.56;;;14.11;75.06
29825;BME280;16713;52.916;12.834;2022-09-01T06:21:38;101808.91;;;13.87;74.92
29825;BME280;16713;52.916;12.834;2022-09-01T06:24:04;101814.22;;;14.08;74.69
29825;BME280;16713;52.916;12.834;2022-09-01T06:26:34;101805.56;;;13.82;75.25
29825;BME280;16713;52.916;12.834;2022-09-01T06:29:02;101809.69;;;14.15;75.75
29825;BME280;16713;52.916;12.834;2022-09-01T06:31:30;101810.53;;;14.31;75.12
29825;BME280;16713;52.916;12.834;2022-09-01T06:34:01;101813.09;;;14.52;75.11
29825;BME280;16713;52.916;12.834;2022-09-01T06:36:29;101807.16;;;14.38;73.55
29825;BME280;16713;52.916;12.834;2022-09-01T06:39:00;101808.78;;;14.39;74.14
29825;BME280;16713;52.916;12.834;2022-09-01T06:41:26;101821.09;;;14.57;74.11
29825;BME280;16713;52.916;12.834;2022-09-01T06:43:53;101812.03;;;14.56;73.91
29825;BME280;16713;52.916;12.834;2022-09-01T06:46:20;101818.75;;;14.43;76.03
29825;BME280;16713;52.916;12.834;2022-09-01T06:48:49;101817.00;;;14.51;75.13
29825;BME280;16713;52.916;12.834;2022-09-01T06:51:19;101825.66;;;14.65;75.10
29825;BME280;16713;52.916;12.834;2022-09-01T06:53:48;101831.13;;;14.77;73.29
29825;BME280;16713;52.916;12.834;2022-09-01T06:56:21;101825.88;;;14.44;75.34
29825;BME280;16713;52.916;12.834;2022-09-01T06:58:50;101829.66;;;14.52;75.54
29825;BME280;16713;52.916;12.834;2022-09-01T07:01:18;101828.16;;;14.70;75.08
29825;BME280;16713;52.916;12.834;2022-09-01T07:03:46;101827.47;;;14.89;74.75
29825;BME280;16713;52.916;12.834;2022-09-01T07:06:13;101831.66;;;14.98;73.05
29825;BME280;16713;52.916;12.834;2022-09-01T07:09:00;101827.00;;;15.33;72.83
29825;BME280;16713;52.916;12.834;2022-09-01T07:11:46;101828.44;;;15.27;72.25
29825;BME280;16713;52.916;12.834;2022-09-01T07:14:34;101832.75;;;15.44;70.87
29825;BME280;16713;52.916;12.834;2022-09-01T07:17:20;101832.69;;;15.56;70.84
29825;BME280;16713;52.916;12.834;2022-09-01T07:19:48;101850.13;;;15.75;70.33
29825;BME280;16713;52.916;12.834;2022-09-01T07:22:15;101839.59;;;15.65;71.88
29825;BME280;16713;52.916;12.834;2022-09-01T07:25:01;101847.47;;;15.82;69.19
29825;BME280;16713;52.916;12.834;2022-09-01T07:27:48;101846.56;;;15.94;70.13
29825;BME280;16713;52.916;12.834;2022-09-01T07:30:16;101855.75;;;15.98;69.33
29825;BME280;16713;52.916;12.834;2022-09-01T07:32:49;101861.66;;;16.16;68.68
29825;BME280;16713;52.916;12.834;2022-09-01T07:35:18;101858.16;;;16.19;67.66
29825;BME280;16713;52.916;12.834;2022-09-01T07:37:46;101854.28;;;16.23;67.28
29825;BME280;16713;52.916;12.834;2022-09-01T07:40:37;101869.00;;;16.27;67.97
29825;BME280;16713;52.916;12.834;2022-09-01T07:43:25;101863.97;;;16.33;69.34
29825;BME280;16713;52.916;12.834;2022-09-01T07:45:58;101867.41;;;16.45;69.93
29825;BME280;16713;52.916;12.834;2022-09-01T07:48:26;101862.75;;;16.49;68.50
29825;BME280;16713;52.916;12.834;2022-09-01T07:51:13;101869.22;;;16.57;67.65
29825;BME280;16713;52.916;12.834;2022-09-01T07:54:03;101876.72;;;16.56;65.50
29825;BME280;16713;52.916;12.834;2022-09-01T07:56:30;101871.75;;;16.65;64.82
29825;BME280;16713;52.916;12.834;2022-09-01T07:59:01;101863.53;;;16.69;64.16
29825;BME280;16713;52.916;12.834;2022-09-01T08:01:28;101877.03;;;16.74;63.91
29825;BME280;16713;52.916;12.834;2022-09-01T08:03:55;101881.06;;;16.76;63.47
29825;BME280;16713;52.916;12.834;2022-09-01T08:06:23;101875.09;;;16.74;62.83
29825;BME280;16713;52.916;12.834;2022-09-01T08:08:53;101890.88;;;16.93;62.92
29825;BME280;16713;52.916;12.834;2022-09-01T08:11:23;101881.31;;;16.90;63.79
29825;BME280;16713;52.916;12.834;2022-09-01T08:14:10;101877.56;;;17.02;64.54
29825;BME280;16713;52.916;12.834;2022-09-01T08:16:37;101883.72;;;16.92;62.60
29825;BME280;16713;52.916;12.834;2022-09-01T08:19:16;101883.03;;;16.98;62.99
29825;BME280;16713;52.916;12.834;2022-09-01T08:21:43;101888.41;;;17.10;64.37
29825;BME280;16713;52.916;12.834;2022-09-01T08:24:10;101888.81;;;17.12;63.24
29825;BME280;16713;52.916;12.834;2022-09-01T08:26:36;101890.06;;;17.15;64.99
29825;BME280;16713;52.916;12.834;2022-09-01T08:29:02;101893.97;;;17.10;64.58
29825;BME280;16713;52.916;12.834;2022-09-01T08:31:30;101886.22;;;17.19;65.63
29825;BME280;16713;52.916;12.834;2022-09-01T08:33:56;101896.69;;;17.29;66.67
29825;BME280;16713;52.916;12.834;2022-09-01T08:36:24;101892.25;;;17.25;65.36
29825;BME280;16713;52.916;12.834;2022-09-01T08:38:51;101885.31;;;17.38;64.97
29825;BME280;16713;52.916;12.834;2022-09-01T08:44:03;101896.38;;;17.34;63.46
29825;BME280;16713;52.916;12.834;2022-09-01T08:46:32;101892.94;;;17.44;63.76
29825;BME280;16713;52.916;12.834;2022-09-01T08:49:06;101886.31;;;17.49;63.06
29825;BME280;16713;52.916;12.834;2022-09-01T08:54:38;101897.97;;;17.62;64.01
29825;BME280;16713;52.916;12.834;2022-09-01T08:57:16;101887.34;;;17.67;63.95
29825;BME280;16713;52.916;12.834;2022-09-01T08:59:43;101891.81;;;17.75;64.46
29825;BME280;16713;52.916;12.834;2022-09-01T09:07:06;101888.91;;;17.91;62.97
29825;BME280;16713;52.916;12.834;2022-09-01T09:09:57;101899.72;;;17.99;62.93
29825;BME280;16713;52.916;12.834;2022-09-01T09:17:32;101900.66;;;18.07;61.77
29825;BME280;16713;52.916;12.834;2022-09-01T09:20:00;101901.03;;;18.09;60.53
29825;BME280;16713;52.916;12.834;2022-09-01T09:22:27;101895.13;;;18.10;60.92
29825;BME280;16713;52.916;12.834;2022-09-01T09:27:35;101894.47;;;18.20;61.58
29825;BME280;16713;52.916;12.834;2022-09-01T09:41:14;101890.75;;;18.09;60.28
29825;BME280;16713;52.916;12.834;2022-09-01T09:43:50;101881.59;;;18.05;60.69
29825;BME280;16713;52.916;12.834;2022-09-01T09:51:38;101879.75;;;18.16;59.92
29825;BME280;16713;52.916;12.834;2022-09-01T09:59:53;101875.03;;;17.94;59.05
29825;BME280;16713;52.916;12.834;2022-09-01T10:04:57;101889.16;;;18.08;57.95
29825;BME280;16713;52.916;12.834;2022-09-01T10:07:32;101879.97;;;18.04;56.91
29825;BME280;16713;52.916;12.834;2022-09-01T10:10:00;101880.72;;;18.01;55.95
29825;BME280;16713;52.916;12.834;2022-09-01T10:12:27;101880.72;;;18.01;55.23
29825;BME280;16713;52.916;12.834;2022-09-01T10:15:07;101877.63;;;18.06;55.36
29825;BME280;16713;52.916;12.834;2022-09-01T10:17:40;101884.69;;;18.00;56.44
29825;BME280;16713;52.916;12.834;2022-09-01T10:20:12;101887.47;;;18.00;56.55
29825;BME280;16713;52.916;12.834;2022-09-01T10:22:40;101886.13;;;17.91;57.33
29825;BME280;16713;52.916;12.834;2022-09-01T10:25:07;101886.91;;;17.91;55.64
29825;BME280;16713;52.916;12.834;2022-09-01T10:27:36;101883.06;;;17.96;58.22
29825;BME280;16713;52.916;12.834;2022-09-01T10:30:09;101880.28;;;17.96;56.32
29825;BME280;16713;52.916;12.834;2022-09-01T10:32:43;101875.13;;;17.98;56.61
29825;BME280;16713;52.916;12.834;2022-09-01T10:35:21;101876.44;;;18.07;57.60
29825;BME280;16713;52.916;12.834;2022-09-01T10:37:49;101878.38;;;18.03;56.93
29825;BME280;16713;52.916;12.834;2022-09-01T10:42:59;101871.81;;;18.18;54.44
29825;BME280;16713;52.916;12.834;2022-09-01T10:45:46;101879.53;;;18.32;55.66
29825;BME280;16713;52.916;12.834;2022-09-01T10:48:30;101879.09;;;18.30;54.03
29825;BME280;16713;52.916;12.834;2022-09-01T10:53:50;101884.75;;;18.37;55.74
29825;BME280;16713;52.916;12.834;2022-09-01T10:56:22;101877.22;;;18.37;55.10
29825;BME280;16713;52.916;12.834;2022-09-01T11:09:41;101876.63;;;18.54;54.10
29825;BME280;16713;52.916;12.834;2022-09-01T11:17:22;101867.50;;;18.57;55.24
29825;BME280;16713;52.916;12.834;2022-09-01T11:19:54;101869.88;;;18.55;55.27
29825;BME280;16713;52.916;12.834;2022-09-01T11:22:27;101868.66;;;18.53;54.44
29825;BME280;16713;52.916;12.834;2022-09-01T11:30:16;101865.53;;;18.58;55.03
29825;BME280;16713;52.916;12.834;2022-09-01T11:32:44;101871.97;;;18.65;55.25
29825;BME280;16713;52.916;12.834;2022-09-01T11:35:19;101868.00;;;18.66;54.64
29825;BME280;16713;52.916;12.834;2022-09-01T11:37:50;101874.31;;;18.60;55.76
29825;BME280;16713;52.916;12.834;2022-09-01T11:40:35;101864.59;;;18.43;55.15
29825;BME280;16713;52.916;12.834;2022-09-01T11:43:03;101863.63;;;18.65;54.19
29825;BME280;16713;52.916;12.834;2022-09-01T11:45:49;101857.31;;;18.68;53.64
29825;BME280;16713;52.916;12.834;2022-09-01T11:48:19;101856.78;;;18.56;54.44
29825;BME280;16713;52.916;12.834;2022-09-01T11:50:45;101865.38;;;18.77;53.11
29825;BME280;16713;52.916;12.834;2022-09-01T11:56:10;101859.69;;;18.70;51.87
29825;BME280;16713;52.916;12.834;2022-09-01T11:58:38;101865.72;;;18.72;53.12
29825;BME280;16713;52.916;12.834;2022-09-01T12:03:39;101864.97;;;18.78;52.59
29825;BME280;16713;52.916;12.834;2022-09-01T12:06:07;101858.84;;;18.62;55.71
29825;BME280;16713;52.916;12.834;2022-09-01T12:08:38;101861.69;;;18.69;54.34
29825;BME280;16713;52.916;12.834;2022-09-01T12:11:06;101853.19;;;18.52;52.92
29825;BME280;16713;52.916;12.834;2022-09-01T12:13:34;101855.28;;;18.65;53.32
29825;BME280;16713;52.916;12.834;2022-09-01T12:16:05;101851.25;;;18.59;53.70
29825;BME280;16713;52.916;12.834;2022-09-01T12:18:45;101854.09;;;18.66;55.06
29825;BME280;16713;52.916;12.834;2022-09-01T12:21:32;101847.63;;;18.55;53.28
29825;BME280;16713;52.916;12.834;2022-09-01T12:26:37;101851.75;;;18.68;54.30
29825;BME280;16713;52.916;12.834;2022-09-01T12:29:04;101854.94;;;18.70;53.29
29825;BME280;16713;52.916;12.834;2022-09-01T12:31:32;101846.25;;;18.72;52.68
29825;BME280;16713;52.916;12.834;2022-09-01T12:33:59;101854.66;;;18.79;51.69
29825;BME280;16713;52.916;12.834;2022-09-01T12:36:31;101851.47;;;18.77;52.02
29825;BME280;16713;52.916;12.834;2022-09-01T12:41:46;101839.63;;;18.83;52.95
29825;BME280;16713;52.916;12.834;2022-09-01T12:44:33;101840.34;;;18.77;53.78
29825;BME280;16713;52.916;12.834;2022-09-01T12:47:03;101843.97;;;18.84;53.87
29825;BME280;16713;52.916;12.834;2022-09-01T12:49:42;101841.16;;;18.81;55.65
29825;BME280;16713;52.916;12.834;2022-09-01T12:54:45;101831.28;;;18.83;55.03
29825;BME280;16713;52.916;12.834;2022-09-01T12:57:22;101830.47;;;18.83;57.34
29825;BME280;16713;52.916;12.834;2022-09-01T13:02:32;101828.53;;;18.87;55.70
29825;BME280;16713;52.916;12.834;2022-09-01T13:07:45;101825.78;;;18.94;54.82
29825;BME280;16713;52.916;12.834;2022-09-01T13:10:11;101830.97;;;18.92;57.21
29825;BME280;16713;52.916;12.834;2022-09-01T13:12:41;101825.38;;;18.89;56.15
29825;BME280;16713;52.916;12.834;2022-09-01T13:15:08;101825.75;;;18.87;55.12
29825;BME280;16713;52.916;12.834;2022-09-01T13:17:35;101823.78;;;18.91;55.39
29825;BME280;16713;52.916;12.834;2022-09-01T13:20:06;101820.19;;;18.87;56.60
29825;BME280;16713;52.916;12.834;2022-09-01T13:22:33;101822.56;;;18.85;55.61
29825;BME280;16713;52.916;12.834;2022-09-01T13:25:00;101813.78;;;18.83;55.46
29825;BME280;16713;52.916;12.834;2022-09-01T13:27:27;101816.94;;;18.81;55.09
29825;BME280;16713;52.916;12.834;2022-09-01T13:29:53;101808.63;;;18.81;56.07
29825;BME280;16713;52.916;12.834;2022-09-01T13:32:21;101812.59;;;18.80;55.76
29825;BME280;16713;52.916;12.834;2022-09-01T13:34:49;101804.28;;;18.84;55.37
29825;BME280;16713;52.916;12.834;2022-09-01T13:37:17;101816.59;;;18.87;56.10
29825;BME280;16713;52.916;12.834;2022-09-01T13:39:44;101810.19;;;18.82;55.42
29825;BME280;16713;52.916;12.834;2022-09-01T13:42:12;101809.66;;;18.70;56.47
29825;BME280;16713;52.916;12.834;2022-09-01T13:44:41;101805.03;;;18.77;55.78
29825;BME280;16713;52.916;12.834;2022-09-01T13:47:07;101811.91;;;18.54;57.49
29825;BME280;16713;52.916;12.834;2022-09-01T13:49:53;101809.78;;;18.40;57.53
29825;BME280;16713;52.916;12.834;2022-09-01T13:52:45;101785.00;;;17.92;58.52
29825;BME280;16713;52.916;12.834;2022-09-01T13:55:22;101802.69;;;18.10;59.29
29825;BME280;16713;52.916;12.834;2022-09-01T13:57:48;101796.81;;;18.18;58.75
29825;BME280;16713;52.916;12.834;2022-09-01T14:00:22;101802.94;;;18.34;59.34
29825;BME280;16713;52.916;12.834;2022-09-01T14:02:50;101801.41;;;18.37;58.09
29825;BME280;16713;52.916;12.834;2022-09-01T14:05:19;101793.34;;;18.25;60.57
29825;BME280;16713;52.916;12.834;2022-09-01T14:07:46;101793.38;;;18.28;60.02
29825;BME280;16713;52.916;12.834;2022-09-01T14:10:14;101800.31;;;18.45;59.31
29825;BME280;16713;52.916;12.834;2022-09-01T14:12:40;101785.59;;;18.44;55.95
29825;BME280;16713;52.916;12.834;2022-09-01T14:15:08;101782.09;;;18.51;55.93
29825;BME280;16713;52.916;12.834;2022-09-01T14:17:38;101784.16;;;18.57;57.58
29825;BME280;16713;52.916;12.834;2022-09-01T14:20:05;101775.78;;;18.54;56.01
29825;BME280;16713;52.916;12.834;2022-09-01T14:22:33;101782.19;;;18.58;56.68
29825;BME280;16713;52.916;12.834;2022-09-01T14:25:03;101781.38;;;18.57;55.77
29825;BME280;16713;52.916;12.834;2022-09-01T14:27:30;101765.06;;;18.56;56.11
29825;BME280;16713;52.916;12.834;2022-09-01T14:29:57;101775.81;;;18.57;56.28
29825;BME280;16713;52.916;12.834;2022-09-01T14:32:23;101769.81;;;18.55;56.88